createdAt,value
2022-09-20T00:00:49.909Z,100641.47
2022-09-20T00:03:17.463Z,100635.94
2022-09-20T00:05:46.011Z,100640.50
2022-09-20T00:08:14.506Z,100650.50
2022-09-20T00:10:43.042Z,100661.13
2022-09-20T00:13:12.088Z,100644.53
2022-09-20T00:15:43.237Z,100633.09
2022-09-20T00:18:11.516Z,100648.53
2022-09-20T00:20:46.198Z,100648.28
2022-09-20T00:23:13.932Z,100635.69
2022-09-20T00:25:41.479Z,100645.94
2022-09-20T00:28:09.402Z,100645.38
2022-09-20T00:30:37.141Z,100645.78
2022-09-20T00:33:04.435Z,100646.47
2022-09-20T00:35:31.723Z,100646.25
2022-09-20T00:37:58.979Z,100644.78
2022-09-20T00:40:29.221Z,100644.91
2022-09-20T00:42:56.509Z,100646.25
2022-09-20T00:45:23.648Z,100644.84
2022-09-20T00:48:06.745Z,100644.22
2022-09-20T00:50:33.924Z,100643.66
2022-09-20T00:53:06.345Z,100641.50
2022-09-20T00:55:35.213Z,100644.28
2022-09-20T00:58:02.837Z,100643.94
2022-09-20T01:00:30.243Z,100644.78
2022-09-20T01:02:59.133Z,100652.47
2022-09-20T01:05:26.775Z,100650.50
2022-09-20T01:07:54.947Z,100648.50
2022-09-20T01:10:22.263Z,100650.78
2022-09-20T01:12:50.440Z,100654.50
2022-09-20T01:15:18.347Z,100661.06
2022-09-20T01:17:48.089Z,100663.06
2022-09-20T01:20:24.968Z,100652.50
2022-09-20T01:23:10.625Z,100661.13
2022-09-20T01:25:53.026Z,100660.78
2022-09-20T01:28:20.782Z,100662.84
2022-09-20T01:30:57.324Z,100666.53
2022-09-20T01:33:27.428Z,100671.66
2022-09-20T01:35:58.025Z,100668.50
2022-09-20T01:38:35.227Z,100669.66
2022-09-20T01:41:08.906Z,100668.00
2022-09-20T01:43:36.138Z,100671.84
2022-09-20T01:46:23.689Z,100673.63
2022-09-20T01:48:54.200Z,100680.25
2022-09-20T01:51:24.157Z,100669.09
2022-09-20T01:54:10.182Z,100669.66
2022-09-20T01:56:46.485Z,100666.00
2022-09-20T01:59:28.902Z,100663.38
2022-09-20T02:02:16.550Z,100661.91
2022-09-20T02:04:49.744Z,100668.75
2022-09-20T02:07:38.067Z,100673.34
2022-09-20T02:10:08.303Z,100674.47
2022-09-20T02:12:51.784Z,100671.03
2022-09-20T02:15:36.490Z,100672.19
2022-09-20T02:18:21.162Z,100674.25
2022-09-20T02:20:54.754Z,100676.50
2022-09-20T02:23:32.128Z,100674.47
2022-09-20T02:26:11.819Z,100682.53
2022-09-20T02:28:42.146Z,100684.88
2022-09-20T02:31:15.272Z,100686.47
2022-09-20T02:33:48.594Z,100690.63
2022-09-20T02:36:35.797Z,100694.19
2022-09-20T02:39:10.893Z,100686.16
2022-09-20T02:41:51.593Z,100689.16
2022-09-20T02:44:25.065Z,100690.97
2022-09-20T02:47:07.616Z,100701.09
2022-09-20T02:49:53.424Z,100698.25
2022-09-20T02:52:27.736Z,100708.41
2022-09-20T02:54:55.024Z,100710.47
2022-09-20T02:57:30.753Z,100701.94
2022-09-20T03:00:03.491Z,100697.63
2022-09-20T03:02:31.176Z,100698.63
2022-09-20T03:05:13.077Z,100695.34
2022-09-20T03:08:02.999Z,100701.56
2022-09-20T03:10:33.171Z,100691.63
2022-09-20T03:13:00.440Z,100691.38
2022-09-20T03:15:46.132Z,100705.50
2022-09-20T03:18:17.345Z,100704.13
2022-09-20T03:21:03.335Z,100711.09
2022-09-20T03:23:31.070Z,100702.78
2022-09-20T03:26:06.552Z,100709.13
2022-09-20T03:28:42.810Z,100713.41
2022-09-20T03:31:28.629Z,100720.47
2022-09-20T03:33:55.924Z,100711.09
2022-09-20T03:36:41.844Z,100722.25
2022-09-20T03:39:12.231Z,100712.47
2022-09-20T03:42:05.720Z,100726.75
2022-09-20T03:44:50.131Z,100717.66
2022-09-20T03:47:20.258Z,100717.88
2022-09-20T03:49:51.269Z,100727.31
2022-09-20T03:52:27.408Z,100729.09
2022-09-20T03:54:57.523Z,100729.13
2022-09-20T03:57:25.356Z,100732.56
2022-09-20T03:59:54.290Z,100732.75
2022-09-20T04:02:36.181Z,100733.88
2022-09-20T04:05:09.582Z,100739.41
2022-09-20T04:07:58.348Z,100737.97
2022-09-20T04:10:29.783Z,100741.75
2022-09-20T04:13:17.674Z,100741.69
2022-09-20T04:15:56.815Z,100741.06
2022-09-20T04:18:42.868Z,100748.25
2022-09-20T04:21:29.790Z,100747.13
2022-09-20T04:24:01.359Z,100749.97
2022-09-20T04:26:29.982Z,100741.34
2022-09-20T04:29:14.435Z,100752.25
2022-09-20T04:31:43.050Z,100756.81
2022-09-20T04:34:19.768Z,100763.38
2022-09-20T04:36:47.064Z,100765.97
2022-09-20T04:39:26.458Z,100768.47
2022-09-20T04:42:12.644Z,100768.28
2022-09-20T04:44:58.155Z,100764.84
2022-09-20T04:47:43.948Z,100768.53
2022-09-20T04:50:23.309Z,100767.97
2022-09-20T04:52:56.651Z,100778.25
2022-09-20T04:55:29.881Z,100775.31
2022-09-20T04:58:06.136Z,100773.72
2022-09-20T05:00:52.375Z,100778.94
2022-09-20T05:03:23.222Z,100777.97
2022-09-20T05:06:08.943Z,100790.44
2022-09-20T05:08:56.636Z,100785.09
2022-09-20T05:11:30.635Z,100791.69
2022-09-20T05:14:24.921Z,100801.41
2022-09-20T05:17:12.365Z,100803.88
2022-09-20T05:19:58.700Z,100799.25
2022-09-20T05:22:44.404Z,100807.28
2022-09-20T05:25:15.407Z,100796.53
2022-09-20T05:27:58.647Z,100798.28
2022-09-20T05:30:39.386Z,100800.16
2022-09-20T05:33:06.570Z,100808.38
2022-09-20T05:35:36.487Z,100802.72
2022-09-20T05:38:22.855Z,100803.94
2022-09-20T05:41:09.360Z,100807.69
2022-09-20T05:43:39.835Z,100802.41
2022-09-20T05:46:19.144Z,100812.09
2022-09-20T05:49:11.031Z,100817.00
2022-09-20T05:51:47.115Z,100807.88
2022-09-20T05:54:26.535Z,100806.47
2022-09-20T05:57:12.196Z,100814.47
2022-09-20T05:59:58.800Z,100813.03
2022-09-20T06:02:44.547Z,100818.72
2022-09-20T06:05:15.085Z,100824.41
2022-09-20T06:08:02.437Z,100817.06
2022-09-20T06:10:41.936Z,100821.84
2022-09-20T06:13:24.552Z,100811.00
2022-09-20T06:15:58.880Z,100812.81
2022-09-20T06:18:29.451Z,100821.22
2022-09-20T06:20:56.817Z,100817.84
2022-09-20T06:23:24.945Z,100824.16
2022-09-20T06:25:57.725Z,100822.38
2022-09-20T06:28:34.362Z,100832.72
2022-09-20T06:31:07.387Z,100841.00
2022-09-20T06:33:40.737Z,100836.25
2022-09-20T06:36:29.382Z,100844.19
2022-09-20T06:39:30.764Z,100836.59
2022-09-20T06:41:59.732Z,100842.38
2022-09-20T06:44:26.901Z,100853.25
2022-09-20T06:46:54.456Z,100844.97
2022-09-20T06:49:22.018Z,100847.34
2022-09-20T06:51:52.529Z,100847.25
2022-09-20T06:54:21.186Z,100849.81
2022-09-20T06:56:50.000Z,100853.25
2022-09-20T06:59:17.199Z,100855.84
2022-09-20T07:01:44.494Z,100854.66
2022-09-20T07:04:11.912Z,100866.16
2022-09-20T07:06:39.471Z,100865.94
2022-09-20T07:09:06.827Z,100865.44
2022-09-20T07:11:34.594Z,100866.66
2022-09-20T07:14:02.037Z,100874.13
2022-09-20T07:16:29.574Z,100870.63
2022-09-20T07:18:57.022Z,100876.84
2022-09-20T07:21:24.294Z,100886.66
2022-09-20T07:23:54.005Z,100880.38
2022-09-20T07:26:26.618Z,100887.00
2022-09-20T07:28:54.854Z,100887.31
2022-09-20T07:31:23.261Z,100890.22
2022-09-20T07:33:50.568Z,100894.72
2022-09-20T07:36:18.214Z,100890.16
2022-09-20T07:38:52.518Z,100892.38
2022-09-20T07:41:20.402Z,100894.38
2022-09-20T07:43:47.612Z,100899.25
2022-09-20T07:46:15.085Z,100900.13
2022-09-20T07:48:42.806Z,100899.47
2022-09-20T07:51:11.752Z,100897.38
2022-09-20T07:53:39.270Z,100900.97
2022-09-20T07:56:07.899Z,100912.00
2022-09-20T07:58:35.861Z,100911.19
2022-09-20T08:01:04.625Z,100916.53
2022-09-20T08:03:33.199Z,100909.13
2022-09-20T08:06:01.378Z,100924.88
2022-09-20T08:08:31.853Z,100917.72
2022-09-20T08:11:09.547Z,100920.47
2022-09-20T08:16:29.122Z,100933.66
2022-09-20T08:18:57.785Z,100936.91
2022-09-20T08:21:26.278Z,100936.56
2022-09-20T08:23:56.360Z,100945.66
2022-09-20T08:26:27.350Z,100953.25
2022-09-20T08:28:58.522Z,100945.75
2022-09-20T08:31:27.463Z,100935.94
2022-09-20T08:33:55.004Z,100947.28
2022-09-20T08:36:24.475Z,100945.56
2022-09-20T08:41:46.261Z,100959.66
2022-09-20T08:44:13.524Z,100957.69
2022-09-20T08:46:43.952Z,100954.84
2022-09-20T08:49:16.950Z,100963.59
2022-09-20T08:51:48.556Z,100954.13
2022-09-20T08:54:16.625Z,100967.41
2022-09-20T08:56:45.504Z,100979.09
2022-09-20T08:59:17.471Z,100976.56
2022-09-20T09:01:45.473Z,100971.19
2022-09-20T09:04:14.854Z,100978.28
2022-09-20T09:06:42.990Z,100979.56
2022-09-20T09:09:21.142Z,100979.84
2022-09-20T09:11:49.317Z,100978.47
2022-09-20T09:14:43.948Z,100981.44
2022-09-20T09:17:12.154Z,100989.59
2022-09-20T09:19:59.620Z,100988.41
2022-09-20T09:22:36.951Z,100983.63
2022-09-20T09:25:09.283Z,100988.72
2022-09-20T09:27:49.528Z,100988.31
2022-09-20T09:30:22.680Z,100989.25
2022-09-20T09:32:50.211Z,100990.75
2022-09-20T09:35:30.379Z,100987.91
2022-09-20T09:38:04.543Z,100988.91
2022-09-20T09:40:32.481Z,100986.81
2022-09-20T09:43:01.932Z,100992.84
2022-09-20T09:45:31.633Z,100987.41
2022-09-20T09:48:00.552Z,101000.25
2022-09-20T09:50:31.906Z,100994.25
2022-09-20T09:53:21.272Z,100998.25
2022-09-20T09:56:03.664Z,101000.91
2022-09-20T09:58:37.889Z,100997.13
2022-09-20T10:01:07.352Z,100994.06
2022-09-20T10:03:47.777Z,101008.91
2022-09-20T10:06:30.508Z,101004.13
2022-09-20T10:09:10.157Z,101009.75
2022-09-20T10:12:03.995Z,101002.81
2022-09-20T10:14:31.257Z,101007.84
2022-09-20T10:17:16.484Z,101016.72
2022-09-20T10:19:46.915Z,101022.31
2022-09-20T10:22:17.312Z,101017.63
2022-09-20T10:24:55.246Z,101015.00
2022-09-20T10:27:22.506Z,101020.66
2022-09-20T10:29:59.684Z,101027.84
2022-09-20T10:32:50.307Z,101025.81
2022-09-20T10:35:23.954Z,101022.06
2022-09-20T10:38:00.947Z,101026.25
2022-09-20T10:40:53.091Z,101032.09
2022-09-20T10:43:40.362Z,101033.19
2022-09-20T10:46:33.186Z,101038.44
2022-09-20T10:49:25.084Z,101036.63
2022-09-20T10:51:53.084Z,101053.59
2022-09-20T10:54:46.787Z,101050.03
2022-09-20T10:57:46.573Z,101057.16
2022-09-20T11:00:22.409Z,101057.44
2022-09-20T11:03:19.094Z,101060.91
2022-09-20T11:05:52.420Z,101053.31
2022-09-20T11:08:22.864Z,101054.91
2022-09-20T11:11:00.309Z,101053.47
2022-09-20T11:13:47.847Z,101065.75
2022-09-20T11:16:18.741Z,101055.19
2022-09-20T11:18:58.944Z,101066.84
2022-09-20T11:21:34.787Z,101063.78
2022-09-20T11:24:20.004Z,101061.69
2022-09-20T11:27:16.520Z,101069.88
2022-09-20T11:29:50.304Z,101076.09
2022-09-20T11:32:20.834Z,101080.50
2022-09-20T11:34:51.018Z,101079.63
2022-09-20T11:37:18.843Z,101077.09
2022-09-20T11:39:46.476Z,101089.63
2022-09-20T11:42:19.632Z,101086.03
2022-09-20T11:44:47.274Z,101085.91
2022-09-20T11:47:31.465Z,101097.25
2022-09-20T11:50:12.920Z,101105.38
2022-09-20T11:52:40.103Z,101107.13
2022-09-20T11:55:19.109Z,101103.38
2022-09-20T11:57:57.973Z,101107.88
2022-09-20T12:00:35.303Z,101101.63
2022-09-20T12:03:04.133Z,101112.19
2022-09-20T12:05:34.031Z,101112.31
2022-09-20T12:08:07.350Z,101113.31
2022-09-20T12:10:37.654Z,101113.69
2022-09-20T12:13:06.976Z,101116.56
2022-09-20T12:15:41.063Z,101117.00
2022-09-20T12:18:15.598Z,101127.75
2022-09-20T12:20:42.821Z,101129.06
2022-09-20T12:23:28.662Z,101134.25
2022-09-20T12:26:03.141Z,101137.69
2022-09-20T12:28:37.833Z,101138.38
2022-09-20T12:31:32.398Z,101137.75
2022-09-20T12:34:11.957Z,101145.38
2022-09-20T12:36:43.175Z,101137.69
2022-09-20T12:39:16.226Z,101142.78
2022-09-20T12:41:51.430Z,101142.31
2022-09-20T12:44:38.688Z,101143.66
2022-09-20T12:47:11.940Z,101145.09
2022-09-20T12:50:06.887Z,101155.03
2022-09-20T12:53:00.653Z,101148.13
2022-09-20T12:55:30.840Z,101151.44
2022-09-20T12:58:02.630Z,101150.06
2022-09-20T13:00:39.048Z,101149.22
2022-09-20T13:03:15.451Z,101146.16
2022-09-20T13:05:46.007Z,101156.34
2022-09-20T13:08:20.064Z,101155.03
2022-09-20T13:10:51.908Z,101160.22
2022-09-20T13:13:33.614Z,101161.78
2022-09-20T13:16:05.654Z,101161.78
2022-09-20T13:18:34.592Z,101165.09
2022-09-20T13:21:06.802Z,101161.06
2022-09-20T13:23:42.395Z,101165.75
2022-09-20T13:26:13.136Z,101177.41
2022-09-20T13:28:45.980Z,101174.09
2022-09-20T13:31:22.129Z,101179.19
2022-09-20T13:33:49.867Z,101175.78
2022-09-20T13:36:28.326Z,101171.97
2022-09-20T13:38:56.965Z,101173.72
2022-09-20T13:41:27.612Z,101174.94
2022-09-20T13:43:55.059Z,101181.50
2022-09-20T13:46:29.886Z,101175.56
2022-09-20T13:49:15.033Z,101185.34
2022-09-20T13:51:42.413Z,101184.09
2022-09-20T13:54:20.144Z,101200.38
2022-09-20T13:56:47.680Z,101186.53
2022-09-20T13:59:19.650Z,101192.66
2022-09-20T14:01:54.573Z,101200.13
2022-09-20T14:04:23.815Z,101198.53
2022-09-20T14:06:52.773Z,101209.44
2022-09-20T14:09:31.403Z,101213.72
2022-09-20T14:11:59.288Z,101216.19
2022-09-20T14:14:27.705Z,101212.38
2022-09-20T14:16:56.613Z,101208.31
2022-09-20T14:19:37.316Z,101217.38
2022-09-20T14:22:05.284Z,101211.22
2022-09-20T14:24:35.736Z,101219.41
2022-09-20T14:27:13.932Z,101224.34
2022-09-20T14:29:42.819Z,101227.41
2022-09-20T14:32:22.255Z,101223.81
2022-09-20T14:34:55.982Z,101226.28
2022-09-20T14:37:28.523Z,101230.25
2022-09-20T14:40:04.569Z,101246.53
2022-09-20T14:42:31.925Z,101230.38
2022-09-20T14:44:59.239Z,101242.56
2022-09-20T14:47:27.791Z,101249.22
2022-09-20T14:49:55.990Z,101243.78
2022-09-20T14:52:26.735Z,101243.34
2022-09-20T14:55:12.813Z,101221.13
2022-09-20T14:57:41.099Z,101250.25
2022-09-20T15:00:11.975Z,101266.28
2022-09-20T15:02:41.528Z,101265.78
2022-09-20T15:05:17.269Z,101277.88
2022-09-20T15:07:45.346Z,101266.81
2022-09-20T15:10:13.189Z,101273.94
2022-09-20T15:12:40.421Z,101273.22
2022-09-20T15:15:14.911Z,101268.00
2022-09-20T15:17:42.806Z,101280.81
2022-09-20T15:20:15.186Z,101276.75
2022-09-20T15:22:43.156Z,101281.56
2022-09-20T15:25:14.335Z,101280.81
2022-09-20T15:27:42.333Z,101283.78
2022-09-20T15:30:10.164Z,101297.84
2022-09-20T15:32:37.523Z,101290.41
2022-09-20T15:35:05.161Z,101295.66
2022-09-20T15:37:32.544Z,101286.88
2022-09-20T15:39:59.719Z,101287.22
2022-09-20T15:42:27.066Z,101290.22
2022-09-20T15:44:54.556Z,101305.00
2022-09-20T15:47:22.188Z,101302.81
2022-09-20T15:49:50.429Z,101308.66
2022-09-20T15:52:19.221Z,101308.19
2022-09-20T15:54:46.723Z,101304.78
2022-09-20T15:57:14.103Z,101313.38
2022-09-20T15:59:41.689Z,101318.81
2022-09-20T16:02:09.574Z,101322.78
2022-09-20T16:04:37.199Z,101322.78
2022-09-20T16:07:06.289Z,101332.63
2022-09-20T16:09:35.005Z,101330.19
2022-09-20T16:12:04.599Z,101335.34
2022-09-20T16:14:31.948Z,101338.78
2022-09-20T16:16:59.140Z,101337.53
2022-09-20T16:19:26.438Z,101345.22
2022-09-20T16:21:58.278Z,101350.66
2022-09-20T16:24:30.411Z,101357.31
2022-09-20T16:26:58.231Z,101352.88
2022-09-20T16:29:26.154Z,101355.56
2022-09-20T16:31:54.519Z,101359.28
2022-09-20T16:34:30.626Z,101363.47
2022-09-20T16:37:05.886Z,101364.22
2022-09-20T16:39:33.435Z,101364.56
2022-09-20T16:42:03.729Z,101366.19
2022-09-20T16:44:32.011Z,101371.84
2022-09-20T16:46:59.279Z,101374.69
2022-09-20T16:49:28.876Z,101382.97
2022-09-20T16:51:56.309Z,101388.00
2022-09-20T16:54:23.524Z,101394.28
2022-09-20T16:56:51.195Z,101399.69
2022-09-20T16:59:21.542Z,101391.81
2022-09-20T17:01:49.690Z,101397.00
2022-09-20T17:04:18.510Z,101398.97
2022-09-20T17:06:46.079Z,101395.78
2022-09-20T17:09:13.715Z,101402.44
2022-09-20T17:11:46.011Z,101416.75
2022-09-20T17:14:13.691Z,101417.72
2022-09-20T17:16:42.315Z,101420.69
2022-09-20T17:19:11.533Z,101427.47
2022-09-20T17:21:40.001Z,101429.44
2022-09-20T17:24:07.751Z,101416.25
2022-09-20T17:26:37.672Z,101431.03
2022-09-20T17:29:06.647Z,101435.28
2022-09-20T17:31:35.453Z,101438.47
2022-09-20T17:34:04.963Z,101432.94
2022-09-20T17:36:33.187Z,101439.97
2022-09-20T17:39:04.153Z,101451.06
2022-09-20T17:41:32.868Z,101458.59
2022-09-20T17:44:00.799Z,101456.25
2022-09-20T17:46:30.502Z,101461.41
2022-09-20T17:49:00.637Z,101458.97
2022-09-20T17:51:31.995Z,101457.94
2022-09-20T17:53:59.491Z,101466.13
2022-09-20T17:56:31.077Z,101468.09
2022-09-20T17:58:59.149Z,101473.75
2022-09-20T18:01:27.464Z,101475.38
2022-09-20T18:03:58.900Z,101485.13
2022-09-20T18:06:40.987Z,101485.38
2022-09-20T18:09:10.103Z,101484.88
2022-09-20T18:11:41.407Z,101494.28
2022-09-20T18:14:10.556Z,101488.03
2022-09-20T18:16:38.837Z,101491.75
2022-09-20T18:19:06.928Z,101495.47
2022-09-20T18:21:36.155Z,101500.63
2022-09-20T18:24:07.408Z,101501.13
2022-09-20T18:26:35.175Z,101509.50
2022-09-20T18:29:12.876Z,101517.22
2022-09-20T18:31:43.258Z,101513.25
2022-09-20T18:34:17.944Z,101512.22
2022-09-20T18:36:48.518Z,101515.91
2022-09-20T18:39:15.730Z,101506.06
2022-09-20T18:41:44.044Z,101512.13
2022-09-20T18:44:14.505Z,101516.75
2022-09-20T18:46:42.056Z,101518.47
2022-09-20T18:49:10.691Z,101521.66
2022-09-20T18:51:40.091Z,101523.66
2022-09-20T18:54:11.389Z,101524.88
2022-09-20T18:56:39.970Z,101534.00
2022-09-20T18:59:17.328Z,101532.53
2022-09-20T19:01:50.976Z,101537.56
2022-09-20T19:04:32.145Z,101542.13
2022-09-20T19:07:08.860Z,101545.59
2022-09-20T19:09:54.459Z,101544.34
2022-09-20T19:12:34.188Z,101551.00
2022-09-20T19:15:20.088Z,101555.63
2022-09-20T19:17:53.785Z,101559.41
2022-09-20T19:20:39.667Z,101554.72
2022-09-20T19:23:25.652Z,101556.88
2022-09-20T19:26:03.282Z,101559.09
2022-09-20T19:28:30.796Z,101560.91
2022-09-20T19:30:58.327Z,101565.03
2022-09-20T19:33:25.636Z,101570.69
2022-09-20T19:35:52.951Z,101561.56
2022-09-20T19:38:20.205Z,101568.22
2022-09-20T19:40:59.777Z,101566.97
2022-09-20T19:43:27.171Z,101570.38
2022-09-20T19:45:57.306Z,101573.34
2022-09-20T19:48:32.628Z,101568.16
2022-09-20T19:51:02.586Z,101573.56
2022-09-20T19:53:30.195Z,101573.44
2022-09-20T19:56:00.775Z,101579.03
2022-09-20T19:58:28.496Z,101586.97
2022-09-20T20:00:55.871Z,101590.66
2022-09-20T20:03:26.249Z,101592.59
2022-09-20T20:06:07.671Z,101597.28
2022-09-20T20:08:43.276Z,101602.69
2022-09-20T20:11:10.578Z,101600.44
2022-09-20T20:14:03.276Z,101605.91
2022-09-20T20:16:42.599Z,101602.38
2022-09-20T20:19:09.815Z,101604.72
2022-09-20T20:21:36.970Z,101608.34
2022-09-20T20:24:16.060Z,101601.81
2022-09-20T20:26:43.261Z,101608.56
2022-09-20T20:29:11.938Z,101608.75
2022-09-20T20:31:39.267Z,101613.88
2022-09-20T20:34:07.086Z,101613.28
2022-09-20T20:36:34.759Z,101624.41
2022-09-20T20:39:02.816Z,101620.44
2022-09-20T20:41:31.694Z,101621.84
2022-09-20T20:43:59.017Z,101624.56
2022-09-20T20:46:26.482Z,101628.13
2022-09-20T20:48:53.891Z,101620.53
2022-09-20T20:51:22.060Z,101624.06
2022-09-20T20:53:50.682Z,101632.06
2022-09-20T20:56:19.627Z,101635.69
2022-09-20T20:58:47.905Z,101630.28
2022-09-20T21:01:52.407Z,101638.06
2022-09-20T21:04:33.281Z,101640.25
2022-09-20T21:07:00.850Z,101637.19
2022-09-20T21:09:28.065Z,101644.31
2022-09-20T21:11:55.359Z,101647.00
2022-09-20T21:14:22.769Z,101654.59
2022-09-20T21:16:51.287Z,101650.50
2022-09-20T21:19:19.153Z,101656.59
2022-09-20T21:21:47.909Z,101655.59
2022-09-20T21:24:17.451Z,101655.31
2022-09-20T21:26:45.757Z,101656.13
2022-09-20T21:29:14.510Z,101648.75
2022-09-20T21:31:44.033Z,101657.88
2022-09-20T21:34:12.250Z,101663.16
2022-09-20T21:36:41.597Z,101659.81
2022-09-20T21:39:09.060Z,101653.75
2022-09-20T21:41:37.668Z,101654.19
2022-09-20T21:44:05.774Z,101664.97
2022-09-20T21:46:34.719Z,101657.38
2022-09-20T21:49:04.115Z,101668.72
2022-09-20T21:51:31.924Z,101667.44
2022-09-20T21:54:01.507Z,101667.44
2022-09-20T21:56:31.412Z,101675.00
2022-09-20T21:58:59.510Z,101672.28
2022-09-20T22:01:27.806Z,101675.63
2022-09-20T22:03:57.522Z,101674.94
2022-09-20T22:06:26.525Z,101682.34
2022-09-20T22:08:56.724Z,101681.72
2022-09-20T22:11:24.913Z,101681.75
2022-09-20T22:13:53.588Z,101678.41
2022-09-20T22:16:24.928Z,101686.94
2022-09-20T22:18:52.765Z,101685.56
2022-09-20T22:21:21.740Z,101689.44
2022-09-20T22:23:50.177Z,101688.84
2022-09-20T22:26:18.560Z,101695.72
2022-09-20T22:28:45.863Z,101690.75
2022-09-20T22:31:14.193Z,101696.25
2022-09-20T22:33:51.439Z,101700.34
2022-09-20T22:36:22.973Z,101699.69
2022-09-20T22:38:50.219Z,101700.16
2022-09-20T22:41:18.315Z,101698.84
2022-09-20T22:43:46.043Z,101707.81
2022-09-20T22:46:17.500Z,101707.72
2022-09-20T22:48:45.046Z,101708.59
2022-09-20T22:51:14.761Z,101700.25
2022-09-20T22:53:42.187Z,101709.50
2022-09-20T22:56:10.869Z,101702.88
2022-09-20T22:58:39.642Z,101710.94
2022-09-20T23:01:12.849Z,101704.94
2022-09-20T23:03:41.713Z,101710.47
2022-09-20T23:06:15.570Z,101712.53
2022-09-20T23:08:42.964Z,101710.47
2022-09-20T23:11:10.471Z,101708.41
2022-09-20T23:13:37.805Z,101713.84
2022-09-20T23:16:31.164Z,101716.66
2022-09-20T23:18:59.852Z,101720.75
2022-09-20T23:21:27.969Z,101711.19
2022-09-20T23:23:56.581Z,101720.47
2022-09-20T23:26:25.464Z,101716.38
2022-09-20T23:28:54.721Z,101715.13
2022-09-20T23:31:22.651Z,101711.84
2022-09-20T23:33:51.675Z,101712.19
2022-09-20T23:36:19.415Z,101700.34
2022-09-20T23:38:47.375Z,101709.47
2022-09-20T23:41:15.560Z,101706.44
2022-09-20T23:43:42.839Z,101718.84
2022-09-20T23:46:11.340Z,101721.38
2022-09-20T23:48:41.459Z,101715.94
2022-09-20T23:51:13.110Z,101717.28
2022-09-20T23:53:40.588Z,101724.63
2022-09-20T23:56:08.314Z,101730.84
2022-09-20T23:58:36.465Z,101734.63
